createdAt,value
2022-08-10T00:00:59.698Z,102713.75
2022-08-10T00:03:27.807Z,102707.31
2022-08-10T00:05:57.370Z,102708.00
2022-08-10T00:08:26.279Z,102706.16
2022-08-10T00:10:54.639Z,102705.31
2022-08-10T00:13:22.930Z,102702.78
2022-08-10T00:15:53.755Z,102708.53
2022-08-10T00:18:34.431Z,102702.44
2022-08-10T00:21:07.424Z,102700.41
2022-08-10T00:23:35.581Z,102709.31
2022-08-10T00:26:06.050Z,102689.09
2022-08-10T00:28:34.119Z,102698.19
2022-08-10T00:31:02.503Z,102699.19
2022-08-10T00:33:30.782Z,102694.28
2022-08-10T00:35:58.853Z,102705.56
2022-08-10T00:38:28.384Z,102700.84
2022-08-10T00:40:56.580Z,102694.25
2022-08-10T00:43:25.287Z,102691.03
2022-08-10T00:45:59.428Z,102694.50
2022-08-10T00:48:29.624Z,102689.25
2022-08-10T00:50:58.341Z,102682.63
2022-08-10T00:53:28.237Z,102683.84
2022-08-10T00:57:14.300Z,102689.22
2022-08-10T00:58:44.471Z,102685.53
2022-08-10T01:02:10.097Z,102682.84
2022-08-10T01:04:58.805Z,102683.84
2022-08-10T01:06:55.210Z,102686.00
2022-08-10T01:09:28.745Z,102684.13
2022-08-10T01:12:41.022Z,102681.44
2022-08-10T01:14:50.353Z,102678.91
2022-08-10T01:17:22.061Z,102681.94
2022-08-10T01:19:57.555Z,102679.41
2022-08-10T01:22:38.130Z,102689.50
2022-08-10T01:27:55.064Z,102687.72
2022-08-10T01:30:24.588Z,102686.03
2022-08-10T01:32:56.535Z,102687.72
2022-08-10T01:35:27.859Z,102682.34
2022-08-10T01:38:00.986Z,102684.53
2022-08-10T01:40:29.307Z,102680.69
2022-08-10T01:43:07.974Z,102692.47
2022-08-10T01:45:44.706Z,102678.31
2022-08-10T01:48:30.782Z,102675.63
2022-08-10T01:51:04.527Z,102680.31
2022-08-10T01:53:40.054Z,102676.09
2022-08-10T01:56:09.252Z,102673.03
2022-08-10T01:58:37.418Z,102676.22
2022-08-10T02:01:07.139Z,102678.53
2022-08-10T02:03:35.538Z,102679.53
2022-08-10T02:06:23.822Z,102667.94
2022-08-10T02:09:04.998Z,102668.09
2022-08-10T02:12:06.317Z,102669.41
2022-08-10T02:14:23.159Z,102675.09
2022-08-10T02:16:52.722Z,102678.97
2022-08-10T02:19:21.751Z,102680.81
2022-08-10T02:22:45.927Z,102676.41
2022-08-10T02:24:43.271Z,102663.94
2022-08-10T02:27:11.360Z,102671.31
2022-08-10T02:29:42.369Z,102670.13
2022-08-10T02:32:12.325Z,102665.22
2022-08-10T02:34:49.491Z,102669.19
2022-08-10T02:37:17.551Z,102676.56
2022-08-10T02:39:45.974Z,102670.19
2022-08-10T02:45:19.060Z,102668.34
2022-08-10T02:45:26.983Z,102667.50
2022-08-10T02:47:59.990Z,102663.81
2022-08-10T02:50:29.281Z,102662.13
2022-08-10T02:53:01.601Z,102657.06
2022-08-10T02:55:33.236Z,102653.38
2022-08-10T02:58:15.369Z,102647.59
2022-08-10T03:00:47.515Z,102652.31
2022-08-10T03:03:20.490Z,102658.00
2022-08-10T03:05:49.942Z,102654.31
2022-08-10T03:08:19.817Z,102650.63
2022-08-10T03:10:47.893Z,102650.28
2022-08-10T03:13:15.960Z,102654.00
2022-08-10T03:15:44.077Z,102657.38
2022-08-10T03:18:12.140Z,102650.00
2022-08-10T03:20:42.731Z,102648.59
2022-08-10T03:23:12.479Z,102649.00
2022-08-10T03:25:40.647Z,102653.91
2022-08-10T03:28:08.725Z,102647.69
2022-08-10T03:30:36.961Z,102638.91
2022-08-10T03:33:05.893Z,102634.84
2022-08-10T03:35:34.001Z,102636.34
2022-08-10T03:38:03.565Z,102637.13
2022-08-10T03:40:45.465Z,102636.03
2022-08-10T03:43:16.199Z,102628.75
2022-08-10T03:45:55.005Z,102629.91
2022-08-10T03:48:32.447Z,102636.13
2022-08-10T03:51:13.086Z,102640.34
2022-08-10T03:54:05.589Z,102643.75
2022-08-10T03:56:32.367Z,102641.34
2022-08-10T03:59:01.177Z,102638.97
2022-08-10T04:02:43.757Z,102651.19
2022-08-10T04:04:22.932Z,102648.84
2022-08-10T04:06:54.662Z,102653.50
2022-08-10T04:09:29.670Z,102654.13
2022-08-10T04:12:11.741Z,102657.59
2022-08-10T04:14:50.867Z,102655.31
2022-08-10T04:17:59.446Z,102653.09
2022-08-10T04:20:14.907Z,102648.31
2022-08-10T04:22:43.031Z,102654.41
2022-08-10T04:25:12.537Z,102657.38
2022-08-10T04:27:40.681Z,102651.63
2022-08-10T04:30:09.911Z,102651.22
2022-08-10T04:32:38.035Z,102645.31
2022-08-10T04:35:06.638Z,102652.81
2022-08-10T04:37:34.754Z,102646.06
2022-08-10T04:40:02.911Z,102643.97
2022-08-10T04:42:32.606Z,102643.41
2022-08-10T04:45:01.052Z,102637.19
2022-08-10T04:47:57.455Z,102636.91
2022-08-10T04:50:17.252Z,102648.66
2022-08-10T04:52:52.518Z,102655.00
2022-08-10T04:55:20.833Z,102660.72
2022-08-10T04:57:50.299Z,102657.47
2022-08-10T05:00:19.327Z,102662.31
2022-08-10T05:02:47.700Z,102658.19
2022-08-10T05:05:15.763Z,102660.19
2022-08-10T05:07:53.823Z,102662.19
2022-08-10T05:10:25.025Z,102661.63
2022-08-10T05:12:54.454Z,102670.13
2022-08-10T05:15:24.428Z,102669.56
2022-08-10T05:18:04.533Z,102668.72
2022-08-10T05:20:37.890Z,102667.75
2022-08-10T05:23:05.958Z,102665.06
2022-08-10T05:25:37.395Z,102668.72
2022-08-10T05:28:07.698Z,102676.09
2022-08-10T05:30:35.785Z,102681.47
2022-08-10T05:33:08.574Z,102683.47
2022-08-10T05:35:57.376Z,102676.38
2022-08-10T05:38:27.431Z,102678.63
2022-08-10T05:40:55.813Z,102675.50
2022-08-10T05:43:25.325Z,102672.38
2022-08-10T05:46:19.076Z,102674.91
2022-08-10T05:48:58.615Z,102678.00
2022-08-10T05:51:29.130Z,102669.34
2022-08-10T05:54:02.075Z,102667.22
2022-08-10T05:56:56.894Z,102671.97
2022-08-10T06:00:34.770Z,102670.00
2022-08-10T06:02:33.232Z,102670.53
2022-08-10T06:05:06.764Z,102672.69
2022-08-10T06:07:37.822Z,102674.06
2022-08-10T06:10:10.107Z,102675.47
2022-08-10T06:12:55.465Z,102676.72
2022-08-10T06:15:50.937Z,102675.25
2022-08-10T06:18:15.434Z,102664.75
2022-08-10T06:20:43.778Z,102668.50
2022-08-10T06:23:11.888Z,102675.41
2022-08-10T06:26:12.166Z,102674.19
2022-08-10T06:28:29.642Z,102673.50
2022-08-10T06:30:59.159Z,102668.41
2022-08-10T06:33:28.008Z,102673.22
2022-08-10T06:35:56.709Z,102676.50
2022-08-10T06:38:25.147Z,102661.66
2022-08-10T06:40:54.193Z,102665.94
2022-08-10T06:43:22.535Z,102668.66
2022-08-10T06:46:08.016Z,102673.25
2022-08-10T06:48:41.685Z,102660.66
2022-08-10T06:51:14.664Z,102672.16
2022-08-10T06:53:53.175Z,102666.66
2022-08-10T06:56:35.806Z,102653.88
2022-08-10T06:59:13.260Z,102655.63
2022-08-10T07:01:51.791Z,102653.47
2022-08-10T07:04:32.921Z,102650.81
2022-08-10T07:07:03.271Z,102657.75
2022-08-10T07:09:31.569Z,102658.41
2022-08-10T07:12:07.528Z,102648.34
2022-08-10T07:14:38.557Z,102656.44
2022-08-10T07:17:15.691Z,102645.97
2022-08-10T07:19:49.647Z,102642.47
2022-08-10T07:23:08.361Z,102641.94
2022-08-10T07:25:07.905Z,102650.72
2022-08-10T07:27:58.361Z,102648.66
2022-08-10T07:30:24.073Z,102647.97
2022-08-10T07:32:52.460Z,102630.56
2022-08-10T07:35:23.060Z,102634.59
2022-08-10T07:37:52.294Z,102640.13
2022-08-10T07:40:21.802Z,102634.34
2022-08-10T07:42:54.972Z,102636.63
2022-08-10T07:45:24.350Z,102636.78
2022-08-10T07:47:56.897Z,102642.47
2022-08-10T07:50:26.821Z,102630.59
2022-08-10T07:52:57.081Z,102634.59
2022-08-10T07:56:01.798Z,102640.09
2022-08-10T07:58:13.271Z,102640.16
2022-08-10T08:00:41.309Z,102637.22
2022-08-10T08:03:10.809Z,102633.03
2022-08-10T08:05:58.906Z,102627.03
2022-08-10T08:08:39.961Z,102630.16
2022-08-10T08:11:08.738Z,102635.94
2022-08-10T08:13:38.201Z,102628.91
2022-08-10T08:16:20.481Z,102627.56
2022-08-10T08:19:23.956Z,102622.81
2022-08-10T08:24:14.787Z,102623.03
2022-08-10T08:24:34.216Z,102628.59
2022-08-10T08:27:03.269Z,102616.22
2022-08-10T08:29:32.648Z,102628.91
2022-08-10T08:32:03.632Z,102618.22
2022-08-10T08:34:33.227Z,102630.28
2022-08-10T08:37:03.042Z,102621.22
2022-08-10T08:39:34.720Z,102616.56
2022-08-10T08:42:16.069Z,102601.25
2022-08-10T08:44:51.892Z,102599.72
2022-08-10T08:48:03.352Z,102604.66
2022-08-10T08:50:26.677Z,102599.38
2022-08-10T08:53:00.728Z,102601.19
2022-08-10T08:56:04.230Z,102598.16
2022-08-10T08:58:31.952Z,102596.13
2022-08-10T09:01:05.262Z,102591.19
2022-08-10T09:03:48.751Z,102583.22
2022-08-10T09:06:29.817Z,102582.19
2022-08-10T09:09:29.075Z,102581.59
2022-08-10T09:12:07.422Z,102571.97
2022-08-10T09:14:39.318Z,102573.22
2022-08-10T09:17:20.407Z,102576.56
2022-08-10T09:19:51.135Z,102582.00
2022-08-10T09:22:26.091Z,102566.91
2022-08-10T09:25:01.820Z,102572.31
2022-08-10T09:27:37.736Z,102567.06
2022-08-10T09:30:07.914Z,102561.81
2022-08-10T09:36:14.639Z,102559.69
2022-08-10T09:36:23.869Z,102577.22
2022-08-10T09:38:37.345Z,102555.59
2022-08-10T09:41:15.192Z,102559.50
2022-08-10T09:43:48.480Z,102566.22
2022-08-10T09:46:27.655Z,102558.34
2022-08-10T09:49:02.193Z,102556.84
2022-08-10T09:51:45.453Z,102557.78
2022-08-10T09:54:28.448Z,102555.56
2022-08-10T09:57:41.254Z,102551.09
2022-08-10T10:00:01.729Z,102547.19
2022-08-10T10:02:59.070Z,102541.38
2022-08-10T10:05:33.900Z,102542.06
2022-08-10T10:08:10.995Z,102543.03
2022-08-10T10:10:47.691Z,102534.44
2022-08-10T10:14:01.587Z,102535.22
2022-08-10T10:16:35.228Z,102528.28
2022-08-10T10:19:17.807Z,102521.00
2022-08-10T10:21:54.133Z,102524.59
2022-08-10T10:24:30.287Z,102520.59
2022-08-10T10:27:02.609Z,102520.41
2022-08-10T10:29:58.140Z,102519.66
2022-08-10T10:32:37.034Z,102525.50
2022-08-10T10:35:11.358Z,102511.09
2022-08-10T10:38:02.235Z,102526.38
2022-08-10T10:40:36.783Z,102519.13
2022-08-10T10:43:09.218Z,102519.22
2022-08-10T10:45:50.337Z,102516.72
2022-08-10T10:48:24.083Z,102519.31
2022-08-10T10:51:04.912Z,102516.38
2022-08-10T10:53:47.109Z,102510.63
2022-08-10T10:56:19.483Z,102519.44
2022-08-10T10:58:53.739Z,102510.16
2022-08-10T11:01:27.225Z,102515.50
2022-08-10T11:04:08.159Z,102510.53
2022-08-10T11:06:45.705Z,102517.03
2022-08-10T11:10:08.612Z,102510.56
2022-08-10T11:12:20.141Z,102498.56
2022-08-10T11:15:00.326Z,102496.16
2022-08-10T11:17:32.707Z,102501.56
2022-08-10T11:20:08.733Z,102503.38
2022-08-10T11:22:40.375Z,102498.38
2022-08-10T11:25:15.982Z,102493.53
2022-08-10T11:27:49.235Z,102493.38
2022-08-10T11:30:22.509Z,102489.13
2022-08-10T11:33:05.453Z,102489.53
2022-08-10T11:35:38.528Z,102481.34
2022-08-10T11:38:30.317Z,102478.16
2022-08-10T11:42:09.928Z,102476.09
2022-08-10T11:44:11.603Z,102472.84
2022-08-10T11:46:42.751Z,102477.72
2022-08-10T11:49:16.330Z,102469.16
2022-08-10T11:51:47.314Z,102474.00
2022-08-10T11:54:21.116Z,102469.41
2022-08-10T11:56:51.988Z,102462.94
2022-08-10T11:59:40.729Z,102462.72
2022-08-10T12:02:09.722Z,102466.41
2022-08-10T12:04:41.275Z,102458.56
2022-08-10T12:10:02.499Z,102463.91
2022-08-10T12:10:10.780Z,102450.75
2022-08-10T12:12:44.405Z,102449.66
2022-08-10T12:15:20.488Z,102448.03
2022-08-10T12:17:54.030Z,102450.31
2022-08-10T12:20:27.771Z,102458.66
2022-08-10T12:22:59.479Z,102453.19
2022-08-10T12:25:57.107Z,102452.38
2022-08-10T12:28:33.279Z,102451.28
2022-08-10T12:31:15.439Z,102455.13
2022-08-10T12:34:01.273Z,102453.72
2022-08-10T12:36:39.822Z,102453.75
2022-08-10T12:39:09.419Z,102451.22
2022-08-10T12:41:44.267Z,102440.97
2022-08-10T12:44:16.011Z,102435.97
2022-08-10T12:46:50.783Z,102430.63
2022-08-10T12:49:21.235Z,102434.47
2022-08-10T12:51:57.352Z,102427.84
2022-08-10T12:54:32.992Z,102434.47
2022-08-10T12:57:03.465Z,102434.03
2022-08-10T12:59:43.854Z,102425.94
2022-08-10T13:02:14.868Z,102431.66
2022-08-10T13:04:45.771Z,102414.94
2022-08-10T13:08:07.289Z,102420.09
2022-08-10T13:10:13.360Z,102417.34
2022-08-10T13:12:46.988Z,102407.91
2022-08-10T13:15:45.823Z,102404.38
2022-08-10T13:18:18.174Z,102401.66
2022-08-10T13:20:52.094Z,102393.28
2022-08-10T13:23:31.726Z,102390.88
2022-08-10T13:26:03.957Z,102393.41
2022-08-10T13:28:39.969Z,102388.19
2022-08-10T13:31:16.845Z,102387.41
2022-08-10T13:34:41.045Z,102377.69
2022-08-10T13:36:39.768Z,102373.41
2022-08-10T13:39:11.980Z,102373.75
2022-08-10T13:41:48.767Z,102365.16
2022-08-10T13:44:28.367Z,102365.72
2022-08-10T13:46:58.352Z,102365.88
2022-08-10T13:49:27.952Z,102363.91
2022-08-10T13:51:58.369Z,102362.03
2022-08-10T13:54:31.286Z,102354.84
2022-08-10T13:56:59.416Z,102355.22
2022-08-10T14:00:34.291Z,102355.19
2022-08-10T14:02:23.684Z,102349.56
2022-08-10T14:04:56.966Z,102348.25
2022-08-10T14:07:28.128Z,102341.25
2022-08-10T14:10:07.432Z,102335.53
2022-08-10T14:12:37.168Z,102332.66
2022-08-10T14:15:06.660Z,102339.66
2022-08-10T14:17:34.939Z,102328.41
2022-08-10T14:20:03.559Z,102329.44
2022-08-10T14:22:33.709Z,102335.16
2022-08-10T14:25:10.793Z,102316.28
2022-08-10T14:28:03.226Z,102321.41
2022-08-10T14:30:30.862Z,102324.78
2022-08-10T14:33:00.422Z,102323.16
2022-08-10T14:36:19.053Z,102313.50
2022-08-10T14:38:19.271Z,102310.78
2022-08-10T14:40:52.557Z,102322.22
2022-08-10T14:43:28.538Z,102307.38
2022-08-10T14:46:01.410Z,102326.09
2022-08-10T14:48:33.286Z,102310.25
2022-08-10T14:51:02.864Z,102315.81
2022-08-10T14:53:34.673Z,102318.88
2022-08-10T14:56:07.634Z,102315.41
2022-08-10T14:58:38.413Z,102308.56
2022-08-10T15:01:07.969Z,102311.91
2022-08-10T15:03:59.444Z,102311.56
2022-08-10T15:06:30.821Z,102309.34
2022-08-10T15:09:12.193Z,102305.00
2022-08-10T15:12:13.008Z,102305.31
2022-08-10T15:14:42.422Z,102295.41
2022-08-10T15:17:13.473Z,102298.94
2022-08-10T15:20:02.280Z,102294.16
2022-08-10T15:22:50.311Z,102295.50
2022-08-10T15:25:24.657Z,102288.59
2022-08-10T15:28:04.897Z,102288.28
2022-08-10T15:30:39.771Z,102287.09
2022-08-10T15:34:03.864Z,102280.19
2022-08-10T15:36:34.650Z,102270.72
2022-08-10T15:39:04.971Z,102264.09
2022-08-10T15:41:57.750Z,102261.97
2022-08-10T15:44:36.972Z,102253.50
2022-08-10T15:47:07.436Z,102254.91
2022-08-10T15:49:41.082Z,102245.41
2022-08-10T15:52:39.284Z,102257.25
2022-08-10T15:55:43.257Z,102238.69
2022-08-10T15:58:01.155Z,102243.53
2022-08-10T16:00:31.427Z,102240.63
2022-08-10T16:03:01.994Z,102236.88
2022-08-10T16:06:01.090Z,102227.38
2022-08-10T16:08:55.827Z,102229.72
2022-08-10T16:11:27.980Z,102242.72
2022-08-10T16:14:16.366Z,102229.50
2022-08-10T16:16:49.753Z,102216.25
2022-08-10T16:19:24.072Z,102227.84
2022-08-10T16:21:58.205Z,102226.41
2022-08-10T16:24:27.562Z,102225.28
2022-08-10T16:26:55.706Z,102215.03
2022-08-10T16:29:25.357Z,102211.78
2022-08-10T16:31:59.786Z,102215.19
2022-08-10T16:34:29.797Z,102210.25
2022-08-10T16:36:59.147Z,102213.41
2022-08-10T16:39:58.864Z,102211.63
2022-08-10T16:42:19.765Z,102206.59
2022-08-10T16:44:52.770Z,102209.91
2022-08-10T16:47:27.321Z,102201.72
2022-08-10T16:49:56.718Z,102201.47
2022-08-10T16:52:25.989Z,102202.25
2022-08-10T16:54:58.622Z,102202.56
2022-08-10T16:57:29.873Z,102197.25
2022-08-10T16:59:58.160Z,102197.19
2022-08-10T17:02:27.630Z,102192.94
2022-08-10T17:04:56.588Z,102192.59
2022-08-10T17:07:30.719Z,102191.88
2022-08-10T17:09:59.054Z,102195.56
2022-08-10T17:12:28.575Z,102196.72
2022-08-10T17:15:09.426Z,102188.44
2022-08-10T17:17:42.509Z,102197.84
2022-08-10T17:20:30.841Z,102192.28
2022-08-10T17:23:03.707Z,102197.59
2022-08-10T17:25:48.520Z,102182.16
2022-08-10T17:28:34.825Z,102187.16
2022-08-10T17:31:23.610Z,102177.47
2022-08-10T17:33:55.489Z,102174.41
2022-08-10T17:36:24.142Z,102168.16
2022-08-10T17:38:52.423Z,102176.97
2022-08-10T17:41:23.760Z,102174.25
2022-08-10T17:44:01.662Z,102163.47
2022-08-10T17:46:32.969Z,102160.59
2022-08-10T17:49:07.379Z,102161.56
2022-08-10T17:51:35.551Z,102149.97
2022-08-10T17:54:08.873Z,102154.53
2022-08-10T17:56:37.638Z,102154.97
2022-08-10T17:59:17.027Z,102145.97
2022-08-10T18:01:58.967Z,102158.22
2022-08-10T18:04:41.727Z,102159.41
2022-08-10T18:07:11.053Z,102155.63
2022-08-10T18:09:41.215Z,102155.75
2022-08-10T18:12:15.792Z,102152.59
2022-08-10T18:14:48.036Z,102155.47
2022-08-10T18:17:18.325Z,102157.47
2022-08-10T18:19:49.372Z,102161.66
2022-08-10T18:22:17.724Z,102161.66
2022-08-10T18:24:45.913Z,102165.50
2022-08-10T18:27:14.573Z,102162.22
2022-08-10T18:29:43.820Z,102155.53
2022-08-10T18:32:12.522Z,102164.03
2022-08-10T18:34:40.648Z,102160.06
2022-08-10T18:37:10.850Z,102159.84
2022-08-10T18:39:40.478Z,102163.19
2022-08-10T18:42:11.499Z,102164.53
2022-08-10T18:44:42.442Z,102163.66
2022-08-10T18:47:15.771Z,102161.69
2022-08-10T18:49:52.965Z,102170.59
2022-08-10T18:52:22.569Z,102173.16
2022-08-10T18:54:51.541Z,102176.88
2022-08-10T18:57:28.237Z,102182.06
2022-08-10T19:00:14.755Z,102177.47
2022-08-10T19:02:51.727Z,102184.84
2022-08-10T19:05:33.910Z,102178.63
2022-08-10T19:08:35.429Z,102185.22
2022-08-10T19:11:06.812Z,102183.81
2022-08-10T19:13:38.181Z,102185.00
2022-08-10T19:16:16.167Z,102185.56
2022-08-10T19:18:55.002Z,102184.03
2022-08-10T19:21:28.585Z,102179.88
2022-08-10T19:24:02.831Z,102170.22
2022-08-10T19:26:47.100Z,102173.06
2022-08-10T19:30:11.077Z,102187.97
2022-08-10T19:32:19.181Z,102188.34
2022-08-10T19:34:59.862Z,102186.84
2022-08-10T19:37:36.938Z,102189.75
2022-08-10T19:40:13.713Z,102190.06
2022-08-10T19:42:48.036Z,102195.63
2022-08-10T19:45:56.243Z,102202.69
2022-08-10T19:48:13.008Z,102201.53
2022-08-10T19:50:45.698Z,102200.31
2022-08-10T19:53:19.825Z,102211.50
2022-08-10T19:56:01.903Z,102209.97
2022-08-10T19:58:47.262Z,102210.22
2022-08-10T20:01:15.595Z,102205.88
2022-08-10T20:03:47.195Z,102216.38
2022-08-10T20:06:20.543Z,102211.53
2022-08-10T20:08:54.104Z,102215.09
2022-08-10T20:11:45.560Z,102208.38
2022-08-10T20:14:22.185Z,102213.06
2022-08-10T20:16:51.525Z,102212.66
2022-08-10T20:19:24.616Z,102221.50
2022-08-10T20:22:12.834Z,102226.75
2022-08-10T20:24:46.298Z,102235.38
2022-08-10T20:27:59.267Z,102239.78
2022-08-10T20:30:10.392Z,102226.75
2022-08-10T20:32:50.264Z,102240.56
2022-08-10T20:35:24.143Z,102236.53
2022-08-10T20:38:03.415Z,102244.06
2022-08-10T20:40:35.766Z,102242.56
2022-08-10T20:43:08.918Z,102235.91
2022-08-10T20:46:07.107Z,102255.13
2022-08-10T20:48:36.007Z,102251.75
2022-08-10T20:51:06.762Z,102245.69
2022-08-10T20:53:35.684Z,102245.47
2022-08-10T20:56:09.339Z,102248.00
2022-08-10T20:59:09.122Z,102246.41
2022-08-10T21:02:11.998Z,102247.16
2022-08-10T21:04:44.648Z,102252.91
2022-08-10T21:07:44.124Z,102243.31
2022-08-10T21:10:18.080Z,102248.22
2022-08-10T21:12:52.222Z,102242.00
2022-08-10T21:15:41.812Z,102244.75
2022-08-10T21:18:22.806Z,102250.44
2022-08-10T21:20:59.571Z,102240.00
2022-08-10T21:23:30.362Z,102238.53
2022-08-10T21:26:08.075Z,102229.56
2022-08-10T21:28:49.913Z,102243.16
2022-08-10T21:31:28.671Z,102237.09
2022-08-10T21:34:32.245Z,102236.69
2022-08-10T21:37:01.824Z,102239.16
2022-08-10T21:39:44.440Z,102231.66
2022-08-10T21:42:36.448Z,102234.56
2022-08-10T21:45:54.906Z,102229.53
2022-08-10T21:48:37.154Z,102231.84
2022-08-10T21:52:01.126Z,102231.56
2022-08-10T21:54:36.162Z,102231.97
2022-08-10T21:57:30.135Z,102218.19
2022-08-10T22:00:30.523Z,102225.88
2022-08-10T22:03:17.782Z,102230.25
2022-08-10T22:06:07.192Z,102236.44
2022-08-10T22:08:57.913Z,102236.78
2022-08-10T22:11:44.665Z,102236.28
2022-08-10T22:18:10.104Z,102238.28
2022-08-10T22:20:43.566Z,102240.78
2022-08-10T22:23:36.962Z,102242.59
2022-08-10T22:26:28.569Z,102242.75
2022-08-10T22:29:16.347Z,102247.69
2022-08-10T22:31:27.040Z,102238.56
2022-08-10T22:32:09.433Z,102240.06
2022-08-10T22:35:04.336Z,102249.56
2022-08-10T22:37:57.820Z,102240.75
2022-08-10T22:40:43.355Z,102246.56
2022-08-10T22:43:46.917Z,102248.63
2022-08-10T22:46:34.099Z,102242.16
2022-08-10T22:49:01.523Z,102247.59
2022-08-10T22:51:41.790Z,102251.53
2022-08-10T22:54:33.775Z,102241.28
2022-08-10T22:57:19.850Z,102248.97
2022-08-10T22:59:49.656Z,102245.59
2022-08-10T23:02:26.680Z,102247.47
2022-08-10T23:04:57.888Z,102244.53
2022-08-10T23:07:27.664Z,102244.25
2022-08-10T23:09:58.926Z,102235.50
2022-08-10T23:12:30.890Z,102235.88
2022-08-10T23:15:19.367Z,102239.22
2022-08-10T23:18:09.308Z,102239.81
2022-08-10T23:20:38.057Z,102244.28
2022-08-10T23:23:09.745Z,102239.84
2022-08-10T23:25:43.755Z,102241.00
2022-08-10T23:28:38.912Z,102238.84
2022-08-10T23:41:09.819Z,102235.41
2022-08-10T23:44:02.936Z,102230.84
2022-08-10T23:46:29.247Z,102235.75
2022-08-10T23:48:59.312Z,102233.63
2022-08-10T23:51:38.688Z,102238.53
2022-08-10T23:54:23.242Z,102233.06
2022-08-10T23:56:53.636Z,102230.09
2022-08-10T23:59:23.672Z,102232.97
